createdAt,value
2019-04-20T00:01:25.731Z,9.08
2019-04-20T00:03:51.910Z,9.63
2019-04-20T00:06:21.915Z,8.70
2019-04-20T00:08:59.862Z,9.25
2019-04-20T00:11:29.580Z,9.35
2019-04-20T00:14:02.041Z,8.38
2019-04-20T00:16:25.278Z,8.00
2019-04-20T00:18:58.325Z,7.72
2019-04-20T00:21:49.669Z,8.15
2019-04-20T00:24:21.589Z,7.95
2019-04-20T00:29:35.251Z,8.58
2019-04-20T00:32:04.149Z,8.20
2019-04-20T00:34:29.514Z,9.10
2019-04-20T00:36:54.028Z,8.90
2019-04-20T00:39:25.871Z,8.95
2019-04-20T00:42:01.115Z,8.73
2019-04-20T00:44:33.127Z,8.23
2019-04-20T00:47:11.167Z,8.63
2019-04-20T00:49:45.908Z,7.97
2019-04-20T00:54:32.588Z,8.80
2019-04-20T00:57:13.348Z,8.53
2019-04-20T00:59:55.207Z,7.58
2019-04-20T01:02:20.887Z,7.60
2019-04-20T01:04:56.492Z,7.67
2019-04-20T01:07:32.917Z,7.67
2019-04-20T01:10:13.082Z,7.75
2019-04-20T01:12:44.489Z,7.50
2019-04-20T01:15:24.451Z,8.13
2019-04-20T01:20:15.023Z,7.40
2019-04-20T01:22:53.812Z,7.28
2019-04-20T01:25:23.082Z,7.83
2019-04-20T01:28:07.783Z,6.62
2019-04-20T01:30:28.471Z,6.90
2019-04-20T01:33:03.691Z,6.22
2019-04-20T01:35:40.826Z,4.53
2019-04-20T01:38:12.469Z,5.22
2019-04-20T01:40:25.811Z,3.83
2019-04-20T01:42:55.462Z,3.50
2019-04-20T01:45:29.321Z,2.90
2019-04-20T01:47:58.353Z,3.60
2019-04-20T01:50:30.074Z,3.40
2019-04-20T01:53:10.186Z,3.47
2019-04-20T01:56:01.530Z,3.37
2019-04-20T01:58:33.655Z,3.40
2019-04-20T02:00:45.921Z,3.33
2019-04-20T02:03:38.357Z,3.47
2019-04-20T02:06:11.643Z,3.35
2019-04-20T02:08:37.895Z,3.35
2019-04-20T02:11:09.412Z,3.40
2019-04-20T02:13:44.425Z,3.50
2019-04-20T02:16:21.307Z,4.42
2019-04-20T02:18:58.727Z,5.33
2019-04-20T02:21:28.714Z,5.80
2019-04-20T02:23:52.617Z,6.95
2019-04-20T02:26:15.996Z,7.42
2019-04-20T02:29:14.534Z,6.95
2019-04-20T02:32:05.012Z,7.22
2019-04-20T02:34:24.121Z,7.30
2019-04-20T02:37:14.024Z,6.50
2019-04-20T02:39:37.609Z,7.58
2019-04-20T02:42:14.006Z,7.75
2019-04-20T02:44:44.153Z,7.10
2019-04-20T02:47:14.018Z,7.20
2019-04-20T02:52:33.994Z,7.00
2019-04-20T02:54:42.850Z,6.50
2019-04-20T02:57:12.243Z,6.33
2019-04-20T02:59:58.796Z,6.25
2019-04-20T03:02:01.392Z,6.30
2019-04-20T03:04:28.318Z,6.37
2019-04-20T03:07:00.974Z,5.50
2019-04-20T03:09:40.026Z,5.55
2019-04-20T03:12:28.620Z,6.00
2019-04-20T03:14:35.210Z,5.50
2019-04-20T03:17:15.275Z,5.80
2019-04-20T03:19:40.149Z,5.67
2019-04-20T03:22:13.805Z,5.90
2019-04-20T03:24:48.576Z,5.72
2019-04-20T03:27:16.056Z,5.85
2019-04-20T03:30:07.666Z,6.72
2019-04-20T03:32:57.378Z,5.72
2019-04-20T03:37:38.049Z,6.33
2019-04-20T03:40:01.498Z,5.72
2019-04-20T03:42:18.183Z,4.75
2019-04-20T03:44:54.247Z,5.60
2019-04-20T03:47:31.462Z,5.45
2019-04-20T03:50:10.934Z,5.53
2019-04-20T03:52:38.905Z,6.20
2019-04-20T03:55:16.204Z,6.15
2019-04-20T03:58:01.156Z,6.35
2019-04-20T04:00:37.590Z,6.10
2019-04-20T04:03:26.187Z,6.30
2019-04-20T04:05:46.113Z,6.35
2019-04-20T04:08:10.351Z,6.62
2019-04-20T04:10:52.436Z,6.47
2019-04-20T04:13:11.429Z,6.47
2019-04-20T04:15:48.738Z,6.55
2019-04-20T04:18:22.997Z,6.65
2019-04-20T04:20:54.153Z,5.80
2019-04-20T04:23:38.258Z,6.72
2019-04-20T04:26:12.848Z,5.65
2019-04-20T04:28:36.624Z,6.12
2019-04-20T04:31:12.134Z,6.42
2019-04-20T04:36:10.076Z,6.25
2019-04-20T04:38:54.275Z,6.53
2019-04-20T04:43:48.283Z,6.67
2019-04-20T04:45:59.920Z,6.08
2019-04-20T04:48:35.598Z,6.60
2019-04-20T04:51:11.320Z,6.15
2019-04-20T04:53:44.862Z,6.40
2019-04-20T04:56:09.207Z,6.65
2019-04-20T04:58:36.266Z,7.12
2019-04-20T05:01:11.675Z,6.60
2019-04-20T05:04:04.843Z,6.00
2019-04-20T05:06:29.154Z,5.87
2019-04-20T05:08:51.218Z,5.45
2019-04-20T05:11:17.332Z,5.80
2019-04-20T05:13:54.652Z,5.65
2019-04-20T05:16:38.537Z,5.78
2019-04-20T05:19:13.374Z,6.60
2019-04-20T05:21:55.253Z,6.10
2019-04-20T05:24:25.583Z,5.70
2019-04-20T05:27:10.036Z,6.00
2019-04-20T05:29:22.481Z,5.50
2019-04-20T05:31:53.460Z,6.60
2019-04-20T05:34:38.931Z,5.60
2019-04-20T05:37:17.675Z,5.75
2019-04-20T05:39:45.798Z,5.50
2019-04-20T05:42:17.694Z,5.45
2019-04-20T05:44:46.076Z,4.70
2019-04-20T05:47:16.930Z,5.33
2019-04-20T05:49:45.323Z,5.05
2019-04-20T05:52:29.010Z,4.87
2019-04-20T05:54:51.195Z,5.30
2019-04-20T05:57:27.700Z,5.30
2019-04-20T05:59:59.443Z,5.22
2019-04-20T06:02:27.275Z,5.30
2019-04-20T06:05:04.398Z,5.37
2019-04-20T06:07:42.013Z,5.22
2019-04-20T06:10:00.226Z,4.47
2019-04-20T06:12:33.087Z,5.17
2019-04-20T06:15:08.285Z,5.10
2019-04-20T06:17:58.403Z,5.20
2019-04-20T06:20:36.053Z,4.95
2019-04-20T06:28:28.029Z,5.62
2019-04-20T06:30:52.595Z,6.10
2019-04-20T06:34:18.174Z,5.83
2019-04-20T06:36:53.987Z,6.22
2019-04-20T06:39:18.691Z,6.10
2019-04-20T06:42:02.214Z,5.87
2019-04-20T06:46:53.678Z,5.25
2019-04-20T06:49:24.421Z,5.40
2019-04-20T06:51:58.700Z,6.20
2019-04-20T06:54:28.694Z,5.58
2019-04-20T06:57:07.311Z,5.83
2019-04-20T06:59:38.741Z,5.35
2019-04-20T07:02:12.664Z,5.62
2019-04-20T07:12:06.431Z,5.10
2019-04-20T07:14:34.009Z,5.27
2019-04-20T07:17:26.920Z,5.40
2019-04-20T07:19:50.499Z,5.15
2019-04-20T07:22:43.982Z,4.42
2019-04-20T07:27:35.467Z,5.08
2019-04-20T07:30:07.934Z,4.50
2019-04-20T07:32:48.399Z,4.55
2019-04-20T07:35:08.500Z,4.47
2019-04-20T07:40:16.278Z,5.28
2019-04-20T07:42:49.498Z,5.62
2019-04-20T07:45:21.665Z,5.70
2019-04-20T07:50:14.902Z,5.30
2019-04-20T07:52:43.288Z,4.97
2019-04-20T07:55:49.607Z,6.42
2019-04-20T07:57:48.810Z,5.78
2019-04-20T08:00:38.328Z,5.78
2019-04-20T08:03:21.607Z,4.80
2019-04-20T08:05:43.031Z,5.15
2019-04-20T08:08:23.964Z,5.05
2019-04-20T08:10:54.341Z,6.08
2019-04-20T08:13:33.395Z,6.37
2019-04-20T08:16:04.659Z,5.65
2019-04-20T08:18:35.134Z,5.75
2019-04-20T08:21:17.916Z,5.42
2019-04-20T08:23:31.718Z,5.90
2019-04-20T08:25:52.203Z,5.78
2019-04-20T08:28:24.182Z,4.87
2019-04-20T08:31:21.836Z,4.35
2019-04-20T08:34:12.161Z,4.97
2019-04-20T08:36:33.168Z,4.65
2019-04-20T08:41:31.628Z,5.67
2019-04-20T08:44:21.733Z,5.37
2019-04-20T08:46:47.718Z,5.83
2019-04-20T08:49:11.575Z,5.80
2019-04-20T08:51:49.603Z,6.20
2019-04-20T08:54:14.304Z,5.67
2019-04-20T08:56:36.120Z,5.50
2019-04-20T08:58:57.381Z,6.25
2019-04-20T09:01:31.929Z,5.92
2019-04-20T09:04:09.029Z,5.70
2019-04-20T09:06:41.976Z,5.67
2019-04-20T09:09:34.740Z,6.45
2019-04-20T09:11:58.968Z,6.45
2019-04-20T09:14:21.474Z,5.85
2019-04-20T09:16:59.168Z,6.33
2019-04-20T09:19:34.854Z,6.37
2019-04-20T09:22:12.198Z,6.25
2019-04-20T09:24:56.256Z,6.22
2019-04-20T09:27:14.495Z,5.83
2019-04-20T09:29:40.631Z,5.87
2019-04-20T09:32:23.158Z,6.08
2019-04-20T09:34:59.741Z,5.62
2019-04-20T09:37:33.014Z,6.37
2019-04-20T09:40:12.964Z,6.28
2019-04-20T09:42:20.420Z,6.67
2019-04-20T09:44:54.373Z,5.65
2019-04-20T09:47:28.387Z,5.65
2019-04-20T09:50:03.414Z,5.28
2019-04-20T09:52:39.937Z,5.78
2019-04-20T09:55:09.234Z,6.55
2019-04-20T09:57:43.774Z,6.50
2019-04-20T10:00:15.879Z,5.15
2019-04-20T10:02:33.040Z,4.50
2019-04-20T10:05:01.905Z,7.03
2019-04-20T10:07:35.349Z,5.67
2019-04-20T10:10:15.873Z,5.47
2019-04-20T10:15:15.232Z,4.97
2019-04-20T10:17:38.632Z,5.30
2019-04-20T10:20:17.191Z,5.97
2019-04-20T10:22:40.559Z,5.55
2019-04-20T10:25:12.871Z,5.30
2019-04-20T10:27:43.699Z,5.22
2019-04-20T10:30:14.607Z,5.40
2019-04-20T10:32:47.178Z,6.75
2019-04-20T10:35:17.495Z,5.40
2019-04-20T10:37:49.407Z,5.83
2019-04-20T10:40:34.404Z,4.58
2019-04-20T10:42:50.392Z,3.87
2019-04-20T10:45:21.153Z,2.75
2019-04-20T10:50:20.975Z,3.83
2019-04-20T10:52:51.869Z,4.00
2019-04-20T10:55:21.750Z,4.00
2019-04-20T10:57:51.453Z,4.67
2019-04-20T11:00:24.181Z,3.77
2019-04-20T11:02:53.841Z,4.60
2019-04-20T11:05:24.471Z,4.40
2019-04-20T11:07:54.724Z,3.98
2019-04-20T11:10:28.554Z,3.90
2019-04-20T11:12:57.015Z,3.98
2019-04-20T11:15:26.754Z,4.22
2019-04-20T11:17:57.519Z,3.75
2019-04-20T11:20:27.586Z,3.90
2019-04-20T11:22:58.580Z,3.98
2019-04-20T11:25:28.382Z,4.42
2019-04-20T11:27:58.557Z,3.98
2019-04-20T11:30:30.041Z,3.25
2019-04-20T11:33:00.229Z,3.92
2019-04-20T11:35:34.417Z,3.70
2019-04-20T11:38:01.204Z,3.98
2019-04-20T11:40:30.939Z,3.20
2019-04-20T11:43:01.606Z,2.98
2019-04-20T11:45:32.910Z,2.60
2019-04-20T11:48:03.302Z,2.65
2019-04-20T11:50:33.677Z,2.42
2019-04-20T11:53:03.577Z,2.45
2019-04-20T11:55:34.086Z,2.60
2019-04-20T11:58:03.852Z,2.30
2019-04-20T12:00:46.929Z,2.27
2019-04-20T12:03:24.877Z,2.40
2019-04-20T12:05:53.161Z,2.50
2019-04-20T12:08:19.091Z,2.10
2019-04-20T12:10:54.070Z,2.50
2019-04-20T12:13:20.570Z,2.27
2019-04-20T12:15:51.727Z,2.58
2019-04-20T12:18:21.614Z,2.20
2019-04-20T12:20:52.535Z,2.42
2019-04-20T12:23:22.492Z,2.50
2019-04-20T12:25:52.387Z,2.40
2019-04-20T12:28:22.159Z,2.40
2019-04-20T12:30:55.949Z,2.65
2019-04-20T12:33:24.232Z,2.22
2019-04-20T12:35:54.306Z,2.53
2019-04-20T12:38:25.246Z,2.55
2019-04-20T12:40:55.676Z,2.40
2019-04-20T12:43:25.518Z,2.05
2019-04-20T12:45:55.832Z,2.27
2019-04-20T12:48:25.927Z,2.33
2019-04-20T12:50:55.722Z,2.42
2019-04-20T12:53:26.480Z,2.30
2019-04-20T12:55:56.800Z,2.35
2019-04-20T12:58:28.459Z,2.42
2019-04-20T13:01:00.557Z,2.65
2019-04-20T13:03:30.279Z,2.30
2019-04-20T13:06:00.025Z,2.33
2019-04-20T13:08:34.626Z,2.80
2019-04-20T13:11:02.937Z,2.58
2019-04-20T13:13:34.613Z,2.40
2019-04-20T13:16:06.150Z,2.77
2019-04-20T13:18:43.391Z,2.52
2019-04-20T13:21:13.338Z,2.58
2019-04-20T13:23:44.797Z,2.98
2019-04-20T13:26:15.663Z,2.80
2019-04-20T13:28:46.759Z,2.37
2019-04-20T13:31:17.677Z,2.55
2019-04-20T13:33:49.452Z,2.50
2019-04-20T13:36:19.908Z,2.67
2019-04-20T13:38:50.037Z,2.50
2019-04-20T13:41:19.928Z,2.87
2019-04-20T13:43:50.278Z,2.50
2019-04-20T13:46:20.807Z,2.65
2019-04-20T13:48:51.058Z,2.65
2019-04-20T13:51:22.774Z,2.30
2019-04-20T13:53:53.250Z,2.47
2019-04-20T13:56:25.859Z,2.67
2019-04-20T13:58:59.844Z,2.62
2019-04-20T14:01:34.752Z,2.25
2019-04-20T14:04:06.154Z,2.40
2019-04-20T14:06:37.202Z,2.75
2019-04-20T14:09:09.749Z,2.37
2019-04-20T14:11:41.386Z,2.42
2019-04-20T14:14:11.378Z,2.50
2019-04-20T14:16:41.243Z,2.37
2019-04-20T14:19:11.260Z,2.62
2019-04-20T14:21:41.761Z,2.70
2019-04-20T14:24:12.991Z,2.77
2019-04-20T14:26:44.560Z,2.95
2019-04-20T14:29:14.761Z,2.52
2019-04-20T14:31:45.874Z,2.40
2019-04-20T14:34:15.624Z,2.52
2019-04-20T14:36:45.202Z,2.40
2019-04-20T14:39:16.193Z,2.52
2019-04-20T14:41:46.556Z,2.22
2019-04-20T14:44:16.335Z,2.72
2019-04-20T14:46:47.456Z,3.20
2019-04-20T14:49:18.633Z,2.33
2019-04-20T14:51:48.326Z,2.77
2019-04-20T14:54:19.013Z,2.40
2019-04-20T14:56:49.545Z,2.40
2019-04-20T14:59:20.849Z,2.22
2019-04-20T15:01:52.483Z,2.10
2019-04-20T15:04:24.943Z,2.10
2019-04-20T15:06:54.738Z,2.17
2019-04-20T15:09:24.749Z,2.50
2019-04-20T15:11:54.876Z,2.30
2019-04-20T15:14:24.842Z,2.10
2019-04-20T15:16:54.679Z,2.25
2019-04-20T15:19:25.891Z,1.92
2019-04-20T15:21:57.726Z,2.35
2019-04-20T15:24:27.467Z,2.42
2019-04-20T15:26:58.316Z,2.20
2019-04-20T15:29:28.527Z,2.40
2019-04-20T15:31:58.289Z,2.20
2019-04-20T15:34:28.894Z,2.65
2019-04-20T15:36:58.717Z,2.40
2019-04-20T15:39:29.198Z,2.40
2019-04-20T15:41:59.558Z,2.25
2019-04-20T15:44:31.462Z,2.02
2019-04-20T15:47:01.473Z,2.20
2019-04-20T15:49:31.518Z,2.20
2019-04-20T15:52:01.773Z,2.25
2019-04-20T15:54:33.716Z,2.42
2019-04-20T15:57:09.813Z,2.12
2019-04-20T15:59:36.002Z,2.33
2019-04-20T16:02:17.620Z,1.85
2019-04-20T16:04:50.541Z,2.50
2019-04-20T16:07:21.498Z,2.17
2019-04-20T16:09:51.651Z,1.90
2019-04-20T16:12:22.871Z,2.37
2019-04-20T16:14:53.675Z,2.00
2019-04-20T16:17:30.748Z,2.08
2019-04-20T16:20:01.302Z,2.60
2019-04-20T16:22:26.775Z,2.02
2019-04-20T16:25:01.270Z,2.30
2019-04-20T16:27:36.127Z,3.05
2019-04-20T16:30:07.541Z,1.47
2019-04-20T16:32:38.479Z,1.87
2019-04-20T16:35:08.768Z,1.67
2019-04-20T16:37:38.533Z,2.22
2019-04-20T16:40:09.734Z,2.10
2019-04-20T16:42:42.126Z,1.90
2019-04-20T16:45:11.664Z,2.22
2019-04-20T16:47:42.129Z,2.00
2019-04-20T16:50:13.098Z,2.10
2019-04-20T16:52:43.162Z,2.00
2019-04-20T16:55:12.990Z,1.87
2019-04-20T16:57:45.004Z,2.10
2019-04-20T17:00:15.633Z,1.98
2019-04-20T17:02:45.525Z,2.08
2019-04-20T17:05:15.364Z,1.90
2019-04-20T17:07:47.033Z,1.98
2019-04-20T17:10:17.965Z,2.02
2019-04-20T17:12:48.094Z,2.30
2019-04-20T17:15:19.278Z,2.15
2019-04-20T17:17:53.958Z,2.40
2019-04-20T17:20:25.656Z,2.52
2019-04-20T17:22:56.257Z,2.05
2019-04-20T17:25:26.043Z,2.10
2019-04-20T17:28:14.950Z,2.40
2019-04-20T17:31:04.404Z,2.22
2019-04-20T17:33:50.703Z,2.00
2019-04-20T17:36:17.356Z,2.40
2019-04-20T17:38:48.552Z,2.75
2019-04-20T17:41:39.115Z,2.90
2019-04-20T17:44:05.899Z,2.87
2019-04-20T17:46:27.299Z,2.87
2019-04-20T17:49:05.569Z,2.90
2019-04-20T17:51:39.218Z,3.10
2019-04-20T17:53:57.680Z,2.80
2019-04-20T17:56:24.351Z,2.55
2019-04-20T17:58:54.299Z,2.45
2019-04-20T18:02:00.365Z,2.80
2019-04-20T18:07:10.875Z,2.58
2019-04-20T18:09:53.406Z,2.70
2019-04-20T18:12:03.323Z,3.05
2019-04-20T18:14:46.073Z,2.90
2019-04-20T18:17:21.787Z,3.08
2019-04-20T18:19:42.896Z,2.90
2019-04-20T18:22:14.003Z,3.10
2019-04-20T18:25:09.105Z,3.40
2019-04-20T18:27:37.403Z,3.47
2019-04-20T18:30:07.077Z,3.02
2019-04-20T18:32:29.268Z,3.35
2019-04-20T18:35:03.403Z,3.10
2019-04-20T18:37:34.391Z,3.10
2019-04-20T18:40:12.543Z,3.33
2019-04-20T18:42:42.104Z,3.12
2019-04-20T18:45:26.794Z,3.10
2019-04-20T18:47:59.968Z,2.77
2019-04-20T18:50:22.392Z,2.90
2019-04-20T18:52:45.398Z,3.60
2019-04-20T18:55:22.027Z,3.30
2019-04-20T18:57:46.976Z,3.77
2019-04-20T19:00:25.032Z,3.33
2019-04-20T19:02:53.864Z,3.40
2019-04-20T19:05:21.980Z,4.05
2019-04-20T19:07:59.250Z,3.20
2019-04-20T19:10:27.204Z,3.20
2019-04-20T19:13:05.847Z,3.90
2019-04-20T19:15:57.817Z,3.83
2019-04-20T19:18:23.873Z,4.08
2019-04-20T19:20:46.207Z,3.37
2019-04-20T19:23:16.857Z,2.98
2019-04-20T19:25:47.713Z,3.60
2019-04-20T19:28:21.626Z,3.27
2019-04-20T19:31:01.708Z,3.13
2019-04-20T19:33:35.577Z,3.12
2019-04-20T19:35:59.744Z,3.37
2019-04-20T19:38:29.389Z,2.98
2019-04-20T19:41:07.076Z,3.15
2019-04-20T19:43:35.134Z,3.47
2019-04-20T19:46:36.650Z,2.95
2019-04-20T19:48:40.577Z,2.90
2019-04-20T19:51:25.596Z,3.10
2019-04-20T19:53:58.743Z,2.95
2019-04-20T19:56:16.639Z,3.20
2019-04-20T19:58:47.176Z,3.20
2019-04-20T20:01:06.637Z,3.17
2019-04-20T20:03:37.616Z,2.80
2019-04-20T20:06:12.012Z,3.08
2019-04-20T20:08:40.486Z,3.25
2019-04-20T20:11:21.735Z,3.33
2019-04-20T20:13:46.955Z,3.50
2019-04-20T20:16:18.597Z,3.17
2019-04-20T20:18:54.259Z,3.17
2019-04-20T20:21:27.409Z,3.50
2019-04-20T20:23:47.816Z,3.60
2019-04-20T20:26:24.366Z,3.77
2019-04-20T20:28:57.745Z,3.20
2019-04-20T20:31:28.262Z,3.33
2019-04-20T20:34:05.983Z,4.53
2019-04-20T20:36:28.898Z,3.80
2019-04-20T20:38:59.098Z,4.20
2019-04-20T20:41:28.892Z,4.78
2019-04-20T20:44:03.751Z,4.45
2019-04-20T20:46:36.090Z,4.55
2019-04-20T20:49:19.002Z,4.85
2019-04-20T20:51:52.811Z,5.17
2019-04-20T20:54:09.923Z,5.55
2019-04-20T20:56:35.822Z,5.30
2019-04-20T20:59:11.489Z,5.25
2019-04-20T21:01:44.054Z,5.65
2019-04-20T21:04:07.008Z,5.12
2019-04-20T21:06:37.728Z,5.92
2019-04-20T21:09:08.191Z,5.47
2019-04-20T21:11:40.195Z,4.95
2019-04-20T21:14:14.438Z,4.67
2019-04-20T21:16:52.234Z,5.03
2019-04-20T21:19:28.476Z,5.07
2019-04-20T21:21:57.100Z,4.83
2019-04-20T21:24:21.143Z,4.83
2019-04-20T21:26:49.918Z,4.70
2019-04-20T21:29:27.400Z,4.80
2019-04-20T21:31:57.434Z,5.12
2019-04-20T21:34:23.648Z,4.97
2019-04-20T21:36:55.301Z,4.90
2019-04-20T21:39:35.006Z,4.80
2019-04-20T21:42:04.176Z,4.83
2019-04-20T21:44:34.771Z,4.50
2019-04-20T21:47:00.037Z,4.53
2019-04-20T21:49:43.681Z,4.40
2019-04-20T21:52:06.102Z,4.85
2019-04-20T21:54:32.401Z,4.53
2019-04-20T21:57:05.826Z,4.47
2019-04-20T21:59:40.938Z,4.72
2019-04-20T22:02:18.314Z,4.45
2019-04-20T22:04:37.575Z,4.50
2019-04-20T22:07:08.080Z,4.55
2019-04-20T22:09:43.353Z,4.47
2019-04-20T22:12:09.800Z,4.22
2019-04-20T22:14:39.896Z,4.42
2019-04-20T22:17:16.342Z,4.30
2019-04-20T22:19:52.679Z,4.30
2019-04-20T22:22:30.803Z,4.30
2019-04-20T22:25:02.706Z,4.57
2019-04-20T22:27:23.679Z,4.20
2019-04-20T22:29:48.141Z,4.30
2019-04-20T22:32:20.450Z,4.37
2019-04-20T22:34:57.021Z,4.05
2019-04-20T22:37:26.996Z,4.60
2019-04-20T22:39:56.353Z,4.72
2019-04-20T22:42:24.669Z,4.47
2019-04-20T22:45:01.871Z,4.53
2019-04-20T22:47:30.312Z,4.42
2019-04-20T22:50:16.207Z,4.67
2019-04-20T22:52:42.729Z,4.58
2019-04-20T22:55:28.243Z,4.80
2019-04-20T22:57:48.425Z,5.45
2019-04-20T23:00:11.088Z,6.00
2019-04-20T23:02:38.855Z,5.97
2019-04-20T23:05:09.132Z,5.95
2019-04-20T23:07:38.973Z,5.50
2019-04-20T23:10:09.033Z,5.70
2019-04-20T23:12:40.235Z,5.30
2019-04-20T23:15:12.155Z,4.83
2019-04-20T23:17:45.415Z,3.95
2019-04-20T23:20:21.211Z,4.43
2019-04-20T23:22:48.990Z,4.30
2019-04-20T23:25:15.767Z,4.00
2019-04-20T23:27:45.766Z,3.92
2019-04-20T23:30:23.736Z,3.80
2019-04-20T23:32:47.151Z,3.52
2019-04-20T23:35:20.112Z,3.80
2019-04-20T23:37:50.581Z,3.27
2019-04-20T23:40:21.637Z,3.42
2019-04-20T23:42:56.005Z,3.37
2019-04-20T23:45:45.697Z,3.15
2019-04-20T23:48:34.852Z,3.52
2019-04-20T23:51:17.170Z,3.62
2019-04-20T23:53:47.694Z,3.70
2019-04-20T23:56:05.791Z,3.45
2019-04-20T23:58:40.639Z,3.85
